Time;durP1;ratioP1;P1;durP2;ratioP2;P2;SDS_P1;SDS_P2;PMS_P1;PMS_P2;Temp;Humidity;BMP_temperature;BMP_pressure;BME280_temperature;BME280_humidity;BME280_pressure;Samples;Min_cycle;Max_cycle;Signal;HPM_P1;HPM_P2
2022/10/14 00:02:04;;;;;;;28.13;21.17;;;;;;;;;;5076008;28;20214;-77
2022/10/14 00:04:33;;;;;;;27.10;21.13;;;;;;;;;;5094564;28;20198;-76
2022/10/14 00:07:02;;;;;;;28.83;21.83;;;;;;;;;;5095985;28;20739;-77
2022/10/14 00:09:30;;;;;;;26.10;21.87;;;;;;;;;;5093959;28;20653;-77
2022/10/14 00:11:59;;;;;;;27.77;21.40;;;;;;;;;;5087532;28;20312;-77
2022/10/14 00:14:27;;;;;;;28.70;21.73;;;;;;;;;;5078891;28;20667;-77
2022/10/14 00:16:57;;;;;;;29.13;22.27;;;;;;;;;;5075395;28;20245;-77
2022/10/14 00:19:25;;;;;;;28.57;21.30;;;;;;;;;;5074524;28;20309;-77
2022/10/14 00:21:54;;;;;;;29.33;22.90;;;;;;;;;;5075007;28;20207;-77
2022/10/14 00:24:22;;;;;;;27.00;23.80;;;;;;;;;;5076027;28;20229;-77
2022/10/14 00:26:51;;;;;;;29.83;23.20;;;;;;;;;;5074945;28;20294;-77
2022/10/14 00:29:19;;;;;;;35.37;24.47;;;;;;;;;;5086434;28;20259;-77
2022/10/14 00:31:50;;;;;;;35.50;25.50;;;;;;;;;;5096023;28;20607;-77
2022/10/14 00:34:20;;;;;;;33.87;24.97;;;;;;;;;;5084598;28;20208;-77
2022/10/14 00:36:48;;;;;;;34.33;26.30;;;;;;;;;;5096433;28;20228;-77
2022/10/14 00:39:17;;;;;;;38.87;27.70;;;;;;;;;;5093800;28;20240;-77
2022/10/14 00:41:46;;;;;;;38.97;28.10;;;;;;;;;;5082403;28;20605;-77
2022/10/14 00:44:33;;;;;;;38.53;29.33;;;;;;;;;;5083513;28;20232;-78
2022/10/14 00:47:01;;;;;;;43.33;29.43;;;;;;;;;;5075711;28;20245;-77
2022/10/14 00:49:34;;;;;;;46.43;29.90;;;;;;;;;;5074669;28;20230;-77
2022/10/14 00:52:04;;;;;;;39.77;30.17;;;;;;;;;;5075870;28;20589;-78
2022/10/14 00:54:34;;;;;;;47.00;31.70;;;;;;;;;;5088659;28;20237;-77
2022/10/14 00:57:03;;;;;;;47.03;32.40;;;;;;;;;;5085031;28;20198;-77
2022/10/14 00:59:33;;;;;;;48.17;33.40;;;;;;;;;;5093850;28;20221;-77
2022/10/14 01:02:01;;;;;;;48.53;33.70;;;;;;;;;;5095686;28;20204;-77
2022/10/14 01:04:31;;;;;;;47.87;33.67;;;;;;;;;;5084877;28;20202;-77
2022/10/14 01:07:07;;;;;;;52.87;35.27;;;;;;;;;;5080112;28;20240;-77
2022/10/14 01:09:40;;;;;;;54.53;34.50;;;;;;;;;;5088149;28;20659;-78
2022/10/14 01:12:10;;;;;;;53.40;35.33;;;;;;;;;;5082010;28;20282;-77
2022/10/14 01:15:03;;;;;;;56.87;37.07;;;;;;;;;;5089826;28;20190;-78
2022/10/14 01:17:36;;;;;;;50.67;35.33;;;;;;;;;;5092177;28;20201;-77
2022/10/14 01:20:15;;;;;;;59.33;37.90;;;;;;;;;;5078889;28;20229;-77
2022/10/14 01:22:47;;;;;;;53.03;36.50;;;;;;;;;;5079840;28;20641;-77
2022/10/14 01:25:20;;;;;;;53.53;36.50;;;;;;;;;;5078955;28;20238;-77
2022/10/14 01:27:55;;;;;;;55.33;36.80;;;;;;;;;;5076936;28;20639;-77
2022/10/14 01:30:25;;;;;;;49.53;36.20;;;;;;;;;;5084787;28;20296;-77
2022/10/14 01:33:00;;;;;;;55.53;36.87;;;;;;;;;;5083080;28;20284;-77
2022/10/14 01:35:33;;;;;;;56.67;38.07;;;;;;;;;;5074297;28;20237;-77
2022/10/14 01:38:03;;;;;;;56.83;38.43;;;;;;;;;;5077135;28;20233;-77
2022/10/14 01:40:35;;;;;;;55.30;38.03;;;;;;;;;;5074993;28;20229;-77
2022/10/14 01:43:05;;;;;;;57.10;37.03;;;;;;;;;;5093657;28;20296;-77
2022/10/14 01:45:37;;;;;;;54.13;37.67;;;;;;;;;;5094093;28;20263;-78
2022/10/14 01:48:06;;;;;;;60.50;38.77;;;;;;;;;;5076032;28;20210;-77
2022/10/14 01:50:36;;;;;;;59.33;39.83;;;;;;;;;;5074904;28;20279;-77
2022/10/14 01:53:06;;;;;;;60.03;38.30;;;;;;;;;;5080668;28;20650;-77
2022/10/14 01:55:36;;;;;;;57.13;40.43;;;;;;;;;;5074467;28;20637;-77
2022/10/14 01:58:06;;;;;;;63.73;40.27;;;;;;;;;;5078457;28;20255;-77
2022/10/14 02:00:37;;;;;;;61.77;40.87;;;;;;;;;;5077365;28;20260;-77
2022/10/14 02:03:05;;;;;;;62.97;41.03;;;;;;;;;;5080837;28;20210;-77
2022/10/14 02:05:37;;;;;;;61.33;40.07;;;;;;;;;;5094461;28;20729;-77
2022/10/14 02:08:10;;;;;;;72.47;42.07;;;;;;;;;;5077823;28;20698;-77
2022/10/14 02:10:45;;;;;;;67.63;41.77;;;;;;;;;;5074017;28;20218;-77
2022/10/14 02:13:20;;;;;;;70.50;42.03;;;;;;;;;;5073540;28;20636;-77
2022/10/14 02:16:01;;;;;;;66.80;41.70;;;;;;;;;;5073610;28;20284;-77
2022/10/14 02:18:35;;;;;;;69.77;43.23;;;;;;;;;;5088399;28;20226;-77
2022/10/14 02:21:09;;;;;;;64.53;42.17;;;;;;;;;;5092778;28;20230;-77
2022/10/14 02:23:40;;;;;;;66.63;42.73;;;;;;;;;;5092148;28;20201;-77
2022/10/14 02:26:09;;;;;;;65.70;42.67;;;;;;;;;;5093637;28;20300;-77
2022/10/14 02:28:38;;;;;;;71.47;44.73;;;;;;;;;;5077054;28;20198;-77
2022/10/14 02:31:11;;;;;;;68.60;42.77;;;;;;;;;;5076857;28;20210;-77
2022/10/14 02:33:41;;;;;;;64.50;42.13;;;;;;;;;;5073644;28;20225;-77
2022/10/14 02:36:10;;;;;;;68.80;44.00;;;;;;;;;;5082812;28;20616;-77
2022/10/14 02:38:40;;;;;;;69.60;41.83;;;;;;;;;;5094002;28;20297;-77
2022/10/14 02:41:09;;;;;;;62.97;40.63;;;;;;;;;;5082828;28;20301;-77
2022/10/14 02:43:38;;;;;;;60.43;40.00;;;;;;;;;;5081184;28;20716;-77
2022/10/14 02:46:08;;;;;;;62.43;41.10;;;;;;;;;;5081637;28;20241;-77
2022/10/14 02:48:36;;;;;;;58.43;40.70;;;;;;;;;;5077786;28;20297;-77
2022/10/14 02:51:05;;;;;;;63.27;41.77;;;;;;;;;;5077686;28;20297;-77
2022/10/14 02:53:33;;;;;;;66.50;41.23;;;;;;;;;;5077523;28;20742;-77
2022/10/14 02:56:02;;;;;;;65.33;40.97;;;;;;;;;;5087765;28;20281;-77
2022/10/14 02:58:30;;;;;;;69.07;42.73;;;;;;;;;;5076541;28;20195;-77
2022/10/14 03:00:59;;;;;;;67.13;41.83;;;;;;;;;;5076491;28;20288;-76
2022/10/14 03:03:29;;;;;;;67.60;42.80;;;;;;;;;;5077015;28;20207;-76
2022/10/14 03:05:57;;;;;;;69.67;42.47;;;;;;;;;;5076826;28;20691;-77
2022/10/14 03:08:25;;;;;;;65.37;41.27;;;;;;;;;;5076661;28;20289;-76
2022/10/14 03:10:54;;;;;;;68.60;42.80;;;;;;;;;;5076729;28;20695;-77
2022/10/14 03:13:22;;;;;;;72.67;43.70;;;;;;;;;;5077034;28;20690;-77
2022/10/14 03:15:51;;;;;;;70.20;42.90;;;;;;;;;;5076663;28;20234;-77
2022/10/14 03:18:20;;;;;;;72.13;42.93;;;;;;;;;;5081384;28;20234;-77
2022/10/14 03:20:50;;;;;;;67.20;42.20;;;;;;;;;;5076147;28;20254;-77
2022/10/14 03:23:18;;;;;;;64.63;41.60;;;;;;;;;;5076595;28;20238;-77
2022/10/14 03:25:47;;;;;;;62.23;40.77;;;;;;;;;;5087039;28;20281;-77
2022/10/14 03:28:16;;;;;;;61.83;39.43;;;;;;;;;;5076787;28;20210;-77
2022/10/14 03:30:44;;;;;;;61.33;39.73;;;;;;;;;;5087612;28;20301;-77
2022/10/14 03:33:13;;;;;;;62.07;40.77;;;;;;;;;;5076285;28;20249;-77
2022/10/14 03:35:42;;;;;;;60.90;40.77;;;;;;;;;;5076168;28;20237;-77
2022/10/14 03:38:12;;;;;;;61.77;40.13;;;;;;;;;;5076010;28;20222;-77
2022/10/14 03:40:41;;;;;;;57.03;38.27;;;;;;;;;;5086208;28;20251;-77
2022/10/14 03:43:09;;;;;;;61.53;40.10;;;;;;;;;;5095930;28;20241;-76
2022/10/14 03:45:38;;;;;;;61.17;39.53;;;;;;;;;;5081951;28;20605;-76
2022/10/14 03:48:06;;;;;;;57.47;37.50;;;;;;;;;;5076209;28;20215;-76
2022/10/14 03:50:35;;;;;;;54.77;36.83;;;;;;;;;;5089176;28;20267;-77
2022/10/14 03:53:03;;;;;;;53.33;35.50;;;;;;;;;;5091377;28;20250;-76
2022/10/14 03:55:33;;;;;;;54.57;34.73;;;;;;;;;;5074215;28;20285;-76
2022/10/14 03:58:02;;;;;;;48.30;33.33;;;;;;;;;;5075911;28;20228;-77
2022/10/14 04:00:30;;;;;;;47.33;33.83;;;;;;;;;;5090492;28;20276;-77
2022/10/14 04:02:59;;;;;;;48.97;33.27;;;;;;;;;;5096578;28;20279;-76
2022/10/14 04:05:31;;;;;;;46.87;32.27;;;;;;;;;;5085994;28;20238;-76
2022/10/14 04:08:00;;;;;;;45.57;32.07;;;;;;;;;;5076945;28;20227;-76
2022/10/14 04:10:28;;;;;;;44.23;32.43;;;;;;;;;;5075702;28;20261;-76
2022/10/14 04:12:58;;;;;;;45.13;31.77;;;;;;;;;;5075998;28;20629;-76
2022/10/14 04:15:27;;;;;;;44.80;31.67;;;;;;;;;;5075771;28;20203;-77
2022/10/14 04:17:56;;;;;;;46.37;31.93;;;;;;;;;;5076506;28;20676;-77
2022/10/14 04:20:25;;;;;;;43.03;30.37;;;;;;;;;;5076310;28;20682;-77
2022/10/14 04:22:53;;;;;;;39.70;29.60;;;;;;;;;;5075846;28;20306;-77
2022/10/14 04:25:22;;;;;;;40.07;29.10;;;;;;;;;;5075653;28;20343;-77
2022/10/14 04:27:50;;;;;;;39.10;28.37;;;;;;;;;;5075784;28;20697;-77
2022/10/14 04:30:20;;;;;;;36.67;27.73;;;;;;;;;;5079228;28;20222;-77
2022/10/14 04:32:48;;;;;;;37.97;29.50;;;;;;;;;;5075652;28;20247;-77
2022/10/14 04:35:17;;;;;;;37.67;27.43;;;;;;;;;;5080546;28;20202;-77
2022/10/14 04:37:45;;;;;;;41.47;29.80;;;;;;;;;;5091543;28;20262;-77
2022/10/14 04:40:14;;;;;;;38.90;29.23;;;;;;;;;;5081684;28;20652;-76
2022/10/14 04:42:42;;;;;;;40.00;28.70;;;;;;;;;;5075818;28;20271;-77
2022/10/14 04:45:11;;;;;;;41.00;30.30;;;;;;;;;;5076411;28;20238;-77
2022/10/14 04:47:41;;;;;;;39.60;29.47;;;;;;;;;;5084075;28;20238;-76
2022/10/14 04:50:15;;;;;;;43.70;30.87;;;;;;;;;;5081361;28;20225;-77
2022/10/14 04:52:44;;;;;;;45.37;30.53;;;;;;;;;;5095446;28;20227;-77
2022/10/14 04:55:12;;;;;;;42.07;28.97;;;;;;;;;;5090124;28;20614;-77
2022/10/14 04:57:42;;;;;;;42.33;30.57;;;;;;;;;;5089010;28;20263;-77
2022/10/14 05:00:12;;;;;;;43.23;30.90;;;;;;;;;;5083302;28;20255;-77
2022/10/14 05:02:41;;;;;;;45.93;31.07;;;;;;;;;;5087831;28;20253;-77
2022/10/14 05:05:10;;;;;;;42.93;30.40;;;;;;;;;;5094235;28;20259;-77
2022/10/14 05:07:39;;;;;;;42.90;30.97;;;;;;;;;;5090746;28;20679;-77
2022/10/14 05:10:08;;;;;;;41.10;29.53;;;;;;;;;;5077204;28;20679;-77
2022/10/14 05:12:37;;;;;;;42.83;31.07;;;;;;;;;;5093978;28;20230;-77
2022/10/14 05:15:06;;;;;;;43.03;31.03;;;;;;;;;;5086668;28;20244;-77
2022/10/14 05:17:36;;;;;;;42.43;29.47;;;;;;;;;;5078323;28;20620;-77
2022/10/14 05:20:07;;;;;;;41.30;28.80;;;;;;;;;;5075095;28;20222;-77
2022/10/14 05:22:35;;;;;;;40.83;29.83;;;;;;;;;;5078755;28;20214;-77
2022/10/14 05:25:04;;;;;;;43.23;29.33;;;;;;;;;;5084876;28;20221;-76
2022/10/14 05:27:32;;;;;;;45.43;30.20;;;;;;;;;;5076636;28;20245;-76
2022/10/14 05:30:01;;;;;;;39.13;27.73;;;;;;;;;;5088437;28;20272;-76
2022/10/14 05:32:30;;;;;;;42.40;29.57;;;;;;;;;;5074533;28;20248;-77
2022/10/14 05:34:58;;;;;;;43.37;30.10;;;;;;;;;;5078993;28;20201;-77
2022/10/14 05:37:28;;;;;;;37.73;28.00;;;;;;;;;;5083330;28;20211;-76
2022/10/14 05:39:57;;;;;;;38.53;28.03;;;;;;;;;;5084837;28;20304;-77
2022/10/14 05:42:25;;;;;;;37.87;28.13;;;;;;;;;;5081146;28;20305;-76
2022/10/14 05:44:54;;;;;;;36.67;27.93;;;;;;;;;;5084664;28;20252;-76
2022/10/14 05:47:22;;;;;;;43.10;29.00;;;;;;;;;;5078692;28;20275;-79
2022/10/14 05:49:51;;;;;;;41.30;28.67;;;;;;;;;;5094406;28;20313;-76
2022/10/14 05:52:28;;;;;;;42.40;29.40;;;;;;;;;;5079073;28;20898;-76
2022/10/14 05:55:10;;;;;;;41.87;27.70;;;;;;;;;;5091263;28;20317;-76
2022/10/14 05:57:43;;;;;;;42.03;28.50;;;;;;;;;;5074285;28;20203;-77
2022/10/14 06:00:12;;;;;;;38.93;27.77;;;;;;;;;;5073721;28;20222;-76
2022/10/14 06:02:41;;;;;;;46.57;29.80;;;;;;;;;;5074083;28;20214;-76
2022/10/14 06:05:10;;;;;;;44.47;29.77;;;;;;;;;;5073778;28;20569;-76
2022/10/14 06:07:38;;;;;;;48.73;32.93;;;;;;;;;;5074397;28;20706;-77
2022/10/14 06:10:09;;;;;;;47.37;31.40;;;;;;;;;;5073469;28;20254;-77
2022/10/14 06:12:38;;;;;;;52.47;33.40;;;;;;;;;;5074448;28;20194;-77
2022/10/14 06:15:07;;;;;;;47.70;31.97;;;;;;;;;;5073745;28;20211;-77
2022/10/14 06:17:35;;;;;;;48.97;32.10;;;;;;;;;;5092518;28;20288;-76
2022/10/14 06:20:04;;;;;;;51.07;32.00;;;;;;;;;;5089911;28;20687;-76
2022/10/14 06:22:32;;;;;;;54.33;32.50;;;;;;;;;;5078570;28;20289;-76
2022/10/14 06:25:01;;;;;;;49.93;32.40;;;;;;;;;;5077665;28;20695;-76
2022/10/14 06:27:33;;;;;;;48.63;31.63;;;;;;;;;;5077641;28;20179;-77
2022/10/14 06:30:01;;;;;;;47.53;30.77;;;;;;;;;;5076819;28;20226;-76
2022/10/14 06:32:30;;;;;;;42.23;29.93;;;;;;;;;;5076447;28;20244;-77
2022/10/14 06:34:59;;;;;;;45.10;30.43;;;;;;;;;;5076660;28;20230;-76
2022/10/14 06:37:27;;;;;;;44.67;29.20;;;;;;;;;;5077269;28;20629;-76
2022/10/14 06:39:55;;;;;;;42.37;28.23;;;;;;;;;;5076796;28;20563;-77
2022/10/14 06:42:24;;;;;;;42.20;29.03;;;;;;;;;;5076815;28;20234;-76
2022/10/14 06:44:54;;;;;;;46.63;30.23;;;;;;;;;;5076776;28;20202;-77
2022/10/14 06:47:23;;;;;;;50.20;32.60;;;;;;;;;;5082584;28;20277;-77
2022/10/14 06:49:51;;;;;;;46.77;31.93;;;;;;;;;;5083539;28;20260;-76
2022/10/14 06:52:20;;;;;;;44.97;32.53;;;;;;;;;;5091123;28;20695;-77
2022/10/14 06:54:49;;;;;;;46.00;31.53;;;;;;;;;;5077024;28;20214;-77
2022/10/14 06:57:17;;;;;;;44.93;29.83;;;;;;;;;;5076630;28;20597;-78
2022/10/14 06:59:46;;;;;;;42.37;28.87;;;;;;;;;;5076444;28;20282;-77
2022/10/14 07:02:15;;;;;;;41.67;28.47;;;;;;;;;;5076734;28;20636;-76
2022/10/14 07:04:44;;;;;;;39.50;28.53;;;;;;;;;;5076715;28;20222;-79
2022/10/14 07:07:12;;;;;;;39.53;28.30;;;;;;;;;;5076803;28;20293;-77
2022/10/14 07:09:41;;;;;;;46.33;31.83;;;;;;;;;;5076955;28;20253;-76
2022/10/14 07:12:09;;;;;;;45.37;30.33;;;;;;;;;;5076655;28;20238;-77
2022/10/14 07:14:38;;;;;;;41.73;28.90;;;;;;;;;;5079825;28;20259;-77
2022/10/14 07:17:08;;;;;;;40.13;29.00;;;;;;;;;;5094779;28;20229;-77
2022/10/14 07:19:37;;;;;;;43.70;30.50;;;;;;;;;;5090970;28;20308;-77
2022/10/14 07:22:06;;;;;;;44.60;30.37;;;;;;;;;;5086610;28;20341;-77
2022/10/14 07:24:34;;;;;;;45.40;30.63;;;;;;;;;;5076549;28;20245;-77
2022/10/14 07:27:03;;;;;;;43.70;30.97;;;;;;;;;;5095104;28;20541;-77
2022/10/14 07:29:32;;;;;;;47.27;31.97;;;;;;;;;;5075076;28;20614;-77
2022/10/14 07:32:00;;;;;;;48.00;31.23;;;;;;;;;;5091129;28;20206;-77
2022/10/14 07:34:29;;;;;;;52.47;33.60;;;;;;;;;;5080997;28;20289;-76
2022/10/14 07:36:58;;;;;;;63.60;37.17;;;;;;;;;;5086474;28;20249;-76
2022/10/14 07:39:27;;;;;;;61.23;36.97;;;;;;;;;;5076368;28;20254;-77
2022/10/14 07:41:56;;;;;;;60.00;36.93;;;;;;;;;;5090047;28;20640;-76
2022/10/14 07:44:28;;;;;;;60.40;38.17;;;;;;;;;;5085231;28;20221;-77
2022/10/14 07:46:58;;;;;;;67.97;39.27;;;;;;;;;;5084413;28;20281;-77
2022/10/14 07:49:26;;;;;;;66.50;39.83;;;;;;;;;;5084692;28;20265;-76
2022/10/14 07:51:54;;;;;;;65.60;41.60;;;;;;;;;;5087873;28;20256;-76
2022/10/14 07:54:25;;;;;;;69.40;40.53;;;;;;;;;;5085082;28;20669;-76
2022/10/14 07:56:59;;;;;;;73.37;41.80;;;;;;;;;;5083155;28;20207;-76
2022/10/14 07:59:35;;;;;;;78.77;42.20;;;;;;;;;;5081445;28;20261;-77
2022/10/14 08:02:06;;;;;;;77.80;42.83;;;;;;;;;;5079427;28;20209;-76
2022/10/14 08:04:41;;;;;;;82.47;44.03;;;;;;;;;;5075221;28;20225;-77
2022/10/14 08:07:14;;;;;;;80.87;42.50;;;;;;;;;;5076889;28;20202;-77
2022/10/14 08:09:46;;;;;;;80.57;42.80;;;;;;;;;;5475071;22;20210;-79
2022/10/14 08:12:15;;;;;;;78.97;41.87;;;;;;;;;;5007375;28;20224;-79
2022/10/14 08:14:44;;;;;;;77.47;41.30;;;;;;;;;;5009171;28;20254;-80
2022/10/14 08:17:13;;;;;;;79.07;41.23;;;;;;;;;;5011582;28;20684;-79
2022/10/14 08:19:42;;;;;;;79.63;40.77;;;;;;;;;;5013980;28;20278;-80
2022/10/14 08:22:11;;;;;;;83.77;40.80;;;;;;;;;;5014378;28;20213;-80
2022/10/14 08:24:41;;;;;;;72.00;37.60;;;;;;;;;;5014347;28;20697;-80
2022/10/14 08:27:11;;;;;;;78.67;39.73;;;;;;;;;;5014089;28;20200;-79
2022/10/14 08:29:42;;;;;;;66.80;36.07;;;;;;;;;;5013459;28;20256;-80
2022/10/14 08:32:11;;;;;;;60.10;34.13;;;;;;;;;;5021862;28;20649;-79
2022/10/14 08:34:40;;;;;;;64.53;34.50;;;;;;;;;;5014412;28;20208;-79
2022/10/14 08:37:09;;;;;;;66.10;35.27;;;;;;;;;;5017142;28;20200;-79
2022/10/14 08:39:38;;;;;;;59.67;33.23;;;;;;;;;;5026606;28;20251;-79
2022/10/14 08:42:18;;;;;;;60.40;33.63;;;;;;;;;;5010877;28;20208;-80
2022/10/14 08:44:50;;;;;;;57.03;32.97;;;;;;;;;;5014433;28;20592;-79
2022/10/14 08:47:22;;;;;;;55.07;32.17;;;;;;;;;;5014315;28;20197;-80
2022/10/14 08:52:40;;;;;;;43.87;27.20;;;;;;;;;;5011515;28;20317;-79
2022/10/14 08:55:17;;;;;;;52.30;29.90;;;;;;;;;;5013735;28;20204;-79
2022/10/14 08:58:12;;;;;;;54.87;30.97;;;;;;;;;;5011468;28;20560;-79
2022/10/14 09:00:56;;;;;;;51.23;30.23;;;;;;;;;;4999640;28;20648;-80
2022/10/14 09:03:31;;;;;;;58.87;31.30;;;;;;;;;;5014405;28;20229;-79
2022/10/14 09:06:02;;;;;;;55.87;32.03;;;;;;;;;;5012031;28;20254;-79
2022/10/14 09:08:45;;;;;;;48.03;29.53;;;;;;;;;;5015201;28;20208;-79
2022/10/14 09:11:15;;;;;;;52.47;30.40;;;;;;;;;;5011657;28;20650;-79
2022/10/14 09:13:48;;;;;;;48.50;29.17;;;;;;;;;;5013218;28;20204;-79
2022/10/14 09:16:19;;;;;;;48.33;28.10;;;;;;;;;;5023805;28;20301;-79
2022/10/14 09:18:50;;;;;;;45.20;27.93;;;;;;;;;;5028187;28;20231;-79
2022/10/14 09:21:28;;;;;;;48.17;28.03;;;;;;;;;;5007164;28;20612;-79
2022/10/14 09:24:18;;;;;;;46.97;28.17;;;;;;;;;;5011824;28;20352;-79
2022/10/14 09:26:48;;;;;;;44.97;27.57;;;;;;;;;;5004925;28;20243;-79
2022/10/14 09:29:23;;;;;;;42.57;26.37;;;;;;;;;;5008878;28;20228;-78
2022/10/14 09:31:52;;;;;;;32.60;22.37;;;;;;;;;;5013726;28;20211;-79
2022/10/14 09:34:22;;;;;;;30.93;21.27;;;;;;;;;;5014143;28;20205;-78
2022/10/14 09:36:53;;;;;;;36.27;22.23;;;;;;;;;;5008182;28;20673;-79
2022/10/14 09:39:22;;;;;;;32.67;21.53;;;;;;;;;;5013800;28;20228;-78
2022/10/14 09:41:53;;;;;;;22.10;15.80;;;;;;;;;;5005127;28;20205;-79
2022/10/14 09:44:24;;;;;;;18.43;14.70;;;;;;;;;;5013008;28;20626;-78
2022/10/14 09:47:08;;;;;;;16.77;12.50;;;;;;;;;;5007446;28;20210;-78
2022/10/14 09:49:41;;;;;;;13.40;10.60;;;;;;;;;;4998809;28;20275;-79
2022/10/14 09:52:21;;;;;;;16.63;11.80;;;;;;;;;;5012214;28;20212;-79
2022/10/14 09:54:53;;;;;;;12.47;9.90;;;;;;;;;;5007167;28;20239;-79
2022/10/14 09:57:22;;;;;;;11.63;10.37;;;;;;;;;;5009960;28;20211;-78
2022/10/14 10:00:08;;;;;;;12.17;8.93;;;;;;;;;;5005980;28;20263;-79
2022/10/14 10:02:43;;;;;;;11.27;9.47;;;;;;;;;;5007465;28;20216;-79
2022/10/14 10:05:28;;;;;;;10.45;7.75;;;;;;;;;;5011528;28;20224;-78
2022/10/14 10:08:06;;;;;;;9.25;7.72;;;;;;;;;;5010268;28;20204;-78
2022/10/14 10:10:38;;;;;;;9.85;8.00;;;;;;;;;;5010100;28;20247;-78
2022/10/14 10:13:33;;;;;;;9.25;8.20;;;;;;;;;;5009094;28;20209;-79
2022/10/14 10:16:08;;;;;;;8.02;6.80;;;;;;;;;;5003924;28;20204;-78
2022/10/14 10:18:39;;;;;;;7.15;6.30;;;;;;;;;;5008826;28;20216;-78
2022/10/14 10:21:20;;;;;;;7.97;6.60;;;;;;;;;;5012389;28;20306;-78
2022/10/14 10:23:57;;;;;;;7.20;6.50;;;;;;;;;;5001674;28;20213;-78
2022/10/14 10:26:29;;;;;;;6.63;5.93;;;;;;;;;;5011490;28;20204;-78
2022/10/14 10:29:02;;;;;;;6.73;6.07;;;;;;;;;;5009827;28;20236;-78
2022/10/14 10:31:37;;;;;;;8.40;6.45;;;;;;;;;;5009740;28;20207;-78
2022/10/14 10:34:44;;;;;;;6.60;5.90;;;;;;;;;;5011533;28;20204;-78
2022/10/14 10:37:22;;;;;;;7.43;5.78;;;;;;;;;;5007720;28;20223;-78
2022/10/14 10:39:59;;;;;;;6.30;5.63;;;;;;;;;;5008171;28;20232;-78
2022/10/14 10:42:38;;;;;;;6.07;5.43;;;;;;;;;;5008763;28;20637;-78
2022/10/14 10:45:15;;;;;;;5.73;5.23;;;;;;;;;;5010732;28;20700;-78
2022/10/14 10:47:52;;;;;;;5.75;4.93;;;;;;;;;;5007910;28;20591;-78
2022/10/14 10:50:31;;;;;;;6.03;5.47;;;;;;;;;;5011445;28;20232;-78
2022/10/14 10:53:15;;;;;;;4.90;4.40;;;;;;;;;;5011649;28;20196;-78
2022/10/14 10:55:53;;;;;;;5.23;4.70;;;;;;;;;;5004802;28;20239;-78
2022/10/14 10:58:34;;;;;;;5.23;4.73;;;;;;;;;;5010986;28;20208;-78
2022/10/14 11:01:17;;;;;;;4.33;4.00;;;;;;;;;;5011877;28;20720;-78
2022/10/14 11:04:00;;;;;;;3.70;3.40;;;;;;;;;;5012562;28;20614;-78
2022/10/14 11:15:19;;;;;;;3.30;2.73;;;;;;;;;;5011335;28;20295;-78
2022/10/14 11:20:56;;;;;;;3.03;2.83;;;;;;;;;;5013865;28;20311;-77
2022/10/14 11:29:20;;;;;;;2.70;2.40;;;;;;;;;;5004588;28;20239;-77
2022/10/14 11:32:07;;;;;;;3.00;2.80;;;;;;;;;;5014342;28;20204;-77
2022/10/14 11:34:54;;;;;;;2.92;2.55;;;;;;;;;;5014229;28;20208;-77
2022/10/14 11:37:40;;;;;;;3.35;3.05;;;;;;;;;;5012546;28;20200;-78
2022/10/14 11:40:20;;;;;;;3.42;2.92;;;;;;;;;;5014235;28;20259;-78
2022/10/14 11:43:21;;;;;;;3.95;3.58;;;;;;;;;;5014210;28;20614;-78
2022/10/14 11:45:56;;;;;;;4.15;3.38;;;;;;;;;;5014327;28;20208;-77
2022/10/14 11:48:36;;;;;;;3.83;3.40;;;;;;;;;;5014346;28;20204;-78
2022/10/14 11:51:22;;;;;;;4.10;3.70;;;;;;;;;;5006668;28;20681;-78
2022/10/14 11:54:02;;;;;;;4.05;3.72;;;;;;;;;;5012809;28;20207;-77
2022/10/14 11:56:51;;;;;;;3.75;3.45;;;;;;;;;;5014720;28;20196;-77
2022/10/14 11:59:38;;;;;;;3.95;3.15;;;;;;;;;;5012938;28;20224;-78
2022/10/14 12:02:29;;;;;;;3.47;3.03;;;;;;;;;;5014923;28;20308;-77
2022/10/14 12:05:08;;;;;;;3.30;3.10;;;;;;;;;;5014684;28;20220;-77
2022/10/14 12:07:40;;;;;;;5.25;2.50;;;;;;;;;;5011415;28;20235;-77
2022/10/14 12:10:27;;;;;;;2.70;2.50;;;;;;;;;;5002569;28;20864;-77
2022/10/14 12:13:06;;;;;;;2.33;2.10;;;;;;;;;;5013368;28;20584;-77
2022/10/14 12:15:41;;;;;;;2.20;2.10;;;;;;;;;;5003077;28;20212;-78
2022/10/14 12:18:11;;;;;;;3.30;2.10;;;;;;;;;;5011529;28;20199;-77
2022/10/14 12:20:44;;;;;;;3.17;2.10;;;;;;;;;;5015083;28;20282;-77
2022/10/14 12:23:18;;;;;;;2.15;1.95;;;;;;;;;;5015168;28;20188;-78
2022/10/14 12:25:54;;;;;;;2.28;2.10;;;;;;;;;;5007247;28;20224;-77
2022/10/14 12:28:25;;;;;;;2.35;2.15;;;;;;;;;;5010543;28;20248;-77
2022/10/14 12:31:12;;;;;;;2.17;1.98;;;;;;;;;;5011187;28;20779;-77
2022/10/14 12:33:57;;;;;;;2.38;2.17;;;;;;;;;;4999560;28;20232;-76
2022/10/14 12:36:37;;;;;;;2.25;2.00;;;;;;;;;;5010618;28;20197;-77
2022/10/14 12:39:48;;;;;;;1.98;1.88;;;;;;;;;;5009705;28;20228;-77
2022/10/14 12:42:23;;;;;;;2.35;2.15;;;;;;;;;;4944210;29;20213;-78
2022/10/14 12:45:00;;;;;;;2.13;2.00;;;;;;;;;;4926999;29;20274;-77
2022/10/14 12:47:33;;;;;;;2.15;1.80;;;;;;;;;;4989850;28;20226;-77
2022/10/14 12:50:04;;;;;;;1.98;1.85;;;;;;;;;;5006066;28;20228;-77
2022/10/14 12:52:35;;;;;;;2.75;2.10;;;;;;;;;;5007311;28;20280;-77
2022/10/14 12:55:10;;;;;;;1.90;1.80;;;;;;;;;;5011498;28;20681;-77
2022/10/14 12:57:38;;;;;;;1.98;1.73;;;;;;;;;;5007511;28;20262;-77
2022/10/14 13:00:30;;;;;;;1.88;1.77;;;;;;;;;;5008869;28;20705;-77
2022/10/14 13:03:02;;;;;;;1.92;1.63;;;;;;;;;;5010215;28;20236;-77
2022/10/14 13:05:40;;;;;;;1.90;1.80;;;;;;;;;;4660964;28;10000011;-77
2022/10/14 13:08:13;;;;;;;2.10;1.58;;;;;;;;;;5009798;28;20631;-77
2022/10/14 13:10:47;;;;;;;1.90;1.48;;;;;;;;;;5006185;28;20234;-76
2022/10/14 13:13:40;;;;;;;1.75;1.65;;;;;;;;;;5010121;28;20204;-77
2022/10/14 13:16:12;;;;;;;1.77;1.67;;;;;;;;;;5004381;28;20201;-77
2022/10/14 13:19:00;;;;;;;1.98;1.70;;;;;;;;;;5003720;28;20303;-77
2022/10/14 13:21:55;;;;;;;1.63;1.52;;;;;;;;;;5001870;28;20243;-77
2022/10/14 13:24:34;;;;;;;4.35;1.60;;;;;;;;;;5011296;28;20235;-77
2022/10/14 13:27:13;;;;;;;2.28;1.70;;;;;;;;;;5008329;28;20619;-77
2022/10/14 13:29:58;;;;;;;1.73;1.48;;;;;;;;;;5007637;28;20255;-77
2022/10/14 13:32:34;;;;;;;2.50;1.50;;;;;;;;;;5011009;28;20200;-78
2022/10/14 13:35:28;;;;;;;1.95;1.77;;;;;;;;;;5010945;28;20208;-77
2022/10/14 13:38:00;;;;;;;1.63;1.52;;;;;;;;;;5000205;28;20211;-78
2022/10/14 13:40:33;;;;;;;1.42;1.33;;;;;;;;;;5006445;28;20716;-78
2022/10/14 13:43:07;;;;;;;2.03;1.88;;;;;;;;;;5011688;28;20210;-77
2022/10/14 13:45:36;;;;;;;1.83;1.73;;;;;;;;;;5005480;28;20228;-78
2022/10/14 13:48:12;;;;;;;2.10;1.50;;;;;;;;;;5011465;28;20193;-77
2022/10/14 13:50:41;;;;;;;1.70;1.30;;;;;;;;;;5010881;28;20326;-77
2022/10/14 13:53:16;;;;;;;2.00;1.80;;;;;;;;;;5007680;28;20654;-77
2022/10/14 13:55:46;;;;;;;3.15;1.70;;;;;;;;;;5009615;28;20319;-77
2022/10/14 13:58:22;;;;;;;1.70;1.60;;;;;;;;;;4999591;28;20259;-77
2022/10/14 14:00:52;;;;;;;1.60;1.50;;;;;;;;;;5003885;28;20220;-78
2022/10/14 14:03:25;;;;;;;1.60;1.50;;;;;;;;;;5011799;28;20220;-77
2022/10/14 14:05:54;;;;;;;1.52;1.42;;;;;;;;;;5010100;28;20228;-77
2022/10/14 14:08:25;;;;;;;1.60;1.50;;;;;;;;;;5011441;28;20244;-77
2022/10/14 14:11:08;;;;;;;2.33;1.67;;;;;;;;;;5009288;28;20224;-78
2022/10/14 14:13:48;;;;;;;1.58;1.48;;;;;;;;;;5020892;28;20196;-78
2022/10/14 14:16:24;;;;;;;1.65;1.33;;;;;;;;;;5010847;28;20573;-78
2022/10/14 14:18:53;;;;;;;1.65;1.40;;;;;;;;;;5007314;28;20210;-77
2022/10/14 14:21:36;;;;;;;1.40;1.30;;;;;;;;;;5003484;28;20223;-77
2022/10/14 14:24:16;;;;;;;1.58;1.30;;;;;;;;;;5012567;28;20299;-77
2022/10/14 14:26:44;;;;;;;1.50;1.40;;;;;;;;;;5009939;28;20303;-77
2022/10/14 14:29:17;;;;;;;1.08;1.08;;;;;;;;;;5006897;28;20275;-77
2022/10/14 14:31:47;;;;;;;2.17;1.48;;;;;;;;;;5008073;28;20189;-77
2022/10/14 14:34:36;;;;;;;2.17;1.50;;;;;;;;;;5003792;28;20204;-77
2022/10/14 14:37:05;;;;;;;1.50;1.33;;;;;;;;;;5012107;28;20209;-77
2022/10/14 14:39:59;;;;;;;1.20;1.20;;;;;;;;;;5004397;28;20693;-77
2022/10/14 14:42:31;;;;;;;2.08;1.27;;;;;;;;;;5006085;28;20188;-77
2022/10/14 14:45:01;;;;;;;1.42;1.33;;;;;;;;;;5015179;28;20251;-77
2022/10/14 14:47:30;;;;;;;1.50;1.40;;;;;;;;;;5011266;28;20735;-77
2022/10/14 14:49:59;;;;;;;2.35;1.40;;;;;;;;;;5016329;28;20326;-77
2022/10/14 14:52:50;;;;;;;1.60;1.50;;;;;;;;;;5013821;28;20197;-77
2022/10/14 14:55:41;;;;;;;2.08;1.20;;;;;;;;;;5001710;28;20215;-77
2022/10/14 14:58:21;;;;;;;1.40;1.30;;;;;;;;;;5015956;28;20204;-77
2022/10/14 15:00:51;;;;;;;1.73;1.35;;;;;;;;;;5015913;28;20740;-77
2022/10/14 15:03:20;;;;;;;1.50;1.25;;;;;;;;;;5013061;28;20248;-78
2022/10/14 15:05:50;;;;;;;1.83;1.35;;;;;;;;;;5014348;28;20211;-78
2022/10/14 15:08:21;;;;;;;3.28;1.50;;;;;;;;;;5010765;28;20225;-77
2022/10/14 15:10:51;;;;;;;1.83;1.55;;;;;;;;;;5009033;28;20823;-77
2022/10/14 15:13:31;;;;;;;3.00;1.70;;;;;;;;;;5014235;28;20220;-78
2022/10/14 15:15:59;;;;;;;1.95;1.85;;;;;;;;;;5013894;28;20243;-78
2022/10/14 15:18:29;;;;;;;2.03;1.80;;;;;;;;;;5015590;28;20200;-77
2022/10/14 15:21:14;;;;;;;1.90;1.80;;;;;;;;;;5015722;28;20216;-77